createdAt,value
2023-04-22T00:01:20.171Z,15.63
2023-04-22T00:03:47.447Z,14.90
2023-04-22T00:06:14.592Z,14.55
2023-04-22T00:08:41.950Z,13.18
2023-04-22T00:11:09.095Z,14.10
2023-04-22T00:13:37.189Z,14.10
2023-04-22T00:16:05.053Z,13.48
2023-04-22T00:18:36.296Z,15.27
2023-04-22T00:21:04.645Z,14.88
2023-04-22T00:23:31.663Z,14.73
2023-04-22T00:25:58.731Z,14.30
2023-04-22T00:28:26.391Z,14.75
2023-04-22T00:30:54.154Z,13.93
2023-04-22T00:33:21.444Z,14.48
2023-04-22T00:35:48.390Z,15.63
2023-04-22T00:38:15.449Z,13.60
2023-04-22T00:40:42.645Z,14.20
2023-04-22T00:43:09.886Z,13.98
2023-04-22T00:45:37.839Z,14.45
2023-04-22T00:48:05.493Z,14.07
2023-04-22T00:50:33.231Z,15.30
2023-04-22T00:53:00.538Z,14.45
2023-04-22T00:55:28.302Z,14.57
2023-04-22T00:57:57.151Z,14.68
2023-04-22T01:00:27.409Z,13.95
2023-04-22T01:02:55.945Z,14.57
2023-04-22T01:05:24.811Z,14.23
2023-04-22T01:07:51.872Z,14.52
2023-04-22T01:10:19.854Z,15.43
2023-04-22T01:12:47.405Z,15.27
2023-04-22T01:15:14.900Z,15.90
2023-04-22T01:17:42.055Z,14.02
2023-04-22T01:20:12.399Z,15.35
2023-04-22T01:22:50.400Z,13.20
2023-04-22T01:25:17.729Z,13.77
2023-04-22T01:27:45.174Z,13.82
2023-04-22T01:30:13.334Z,13.18
2023-04-22T01:32:41.635Z,13.15
2023-04-22T01:35:10.457Z,12.82
2023-04-22T01:37:38.414Z,12.80
2023-04-22T01:40:07.726Z,12.48
2023-04-22T01:42:35.681Z,12.07
2023-04-22T01:45:03.138Z,13.32
2023-04-22T01:47:30.555Z,13.23
2023-04-22T01:49:57.836Z,13.15
2023-04-22T01:52:27.737Z,13.15
2023-04-22T01:54:55.349Z,12.45
2023-04-22T01:57:22.448Z,13.35
2023-04-22T01:59:49.641Z,12.38
2023-04-22T02:02:16.823Z,12.65
2023-04-22T02:04:43.935Z,13.10
2023-04-22T02:07:11.080Z,12.98
2023-04-22T02:09:38.986Z,13.48
2023-04-22T02:12:08.017Z,12.95
2023-04-22T02:14:35.389Z,13.57
2023-04-22T02:17:03.639Z,12.05
2023-04-22T02:19:30.661Z,13.07
2023-04-22T02:21:58.302Z,13.65
2023-04-22T02:24:25.533Z,13.50
2023-04-22T02:26:52.678Z,12.77
2023-04-22T02:29:19.954Z,11.88
2023-04-22T02:31:47.724Z,12.15
2023-04-22T02:34:15.193Z,11.70
2023-04-22T02:36:42.254Z,11.45
2023-04-22T02:39:09.236Z,11.38
2023-04-22T02:41:36.922Z,10.93
2023-04-22T02:44:04.928Z,10.15
2023-04-22T02:46:31.979Z,10.00
2023-04-22T02:48:59.048Z,8.82
2023-04-22T02:51:26.774Z,9.43
2023-04-22T02:53:54.164Z,9.85
2023-04-22T02:56:21.533Z,9.68
2023-04-22T02:58:48.620Z,9.43
2023-04-22T03:01:15.666Z,9.02
2023-04-22T03:03:43.401Z,7.93
2023-04-22T03:06:13.895Z,8.80
2023-04-22T03:08:41.581Z,8.70
2023-04-22T03:11:08.832Z,8.43
2023-04-22T03:13:35.752Z,8.80
2023-04-22T03:16:02.800Z,9.30
2023-04-22T03:18:29.781Z,8.70
2023-04-22T03:20:56.732Z,10.00
2023-04-22T03:23:24.053Z,8.52
2023-04-22T03:25:51.157Z,11.05
2023-04-22T03:28:21.371Z,11.20
2023-04-22T03:30:48.723Z,9.93
2023-04-22T03:33:15.930Z,9.65
2023-04-22T03:35:49.835Z,9.48
2023-04-22T03:38:17.798Z,9.73
2023-04-22T03:40:45.251Z,8.98
2023-04-22T03:43:36.924Z,9.77
2023-04-22T03:46:08.285Z,9.30
2023-04-22T03:48:38.883Z,9.30
2023-04-22T03:51:11.780Z,8.63
2023-04-22T03:53:41.562Z,10.63
2023-04-22T03:56:11.665Z,9.25
2023-04-22T03:58:43.959Z,8.95
2023-04-22T04:01:11.514Z,10.07
2023-04-22T04:03:40.071Z,10.95
2023-04-22T04:06:09.538Z,10.50
2023-04-22T04:08:37.234Z,10.60
2023-04-22T04:11:05.035Z,9.65
2023-04-22T04:13:32.625Z,12.88
2023-04-22T04:16:21.648Z,11.40
2023-04-22T04:18:55.137Z,10.52
2023-04-22T04:21:24.702Z,10.63
2023-04-22T04:23:53.248Z,10.70
2023-04-22T04:26:28.037Z,11.20
2023-04-22T04:29:02.622Z,11.43
2023-04-22T04:31:29.965Z,10.68
2023-04-22T04:33:59.202Z,11.35
2023-04-22T04:36:29.512Z,10.55
2023-04-22T04:39:08.430Z,11.05
2023-04-22T04:41:38.727Z,11.43
2023-04-22T04:44:07.011Z,11.70
2023-04-22T04:46:37.902Z,10.75
2023-04-22T04:49:09.492Z,11.35
2023-04-22T04:51:45.771Z,11.50
2023-04-22T04:54:13.560Z,10.95
2023-04-22T04:56:41.921Z,11.73
2023-04-22T04:59:10.674Z,11.52
2023-04-22T05:01:39.719Z,10.88
2023-04-22T05:04:09.406Z,11.82
2023-04-22T05:06:40.200Z,10.40
2023-04-22T05:09:08.358Z,12.77
2023-04-22T05:11:36.783Z,13.02
2023-04-22T05:14:11.165Z,13.70
2023-04-22T05:16:41.804Z,15.02
2023-04-22T05:19:09.716Z,15.93
2023-04-22T05:21:36.819Z,14.23
2023-04-22T05:24:04.771Z,15.07
2023-04-22T05:26:32.359Z,14.52
2023-04-22T05:29:00.974Z,14.30
2023-04-22T05:31:30.062Z,13.90
2023-04-22T05:33:57.704Z,14.07
2023-04-22T05:36:28.390Z,14.10
2023-04-22T05:38:58.331Z,14.05
2023-04-22T05:41:26.238Z,13.00
2023-04-22T05:43:54.956Z,12.98
2023-04-22T05:46:22.563Z,13.57
2023-04-22T05:48:50.140Z,13.93
2023-04-22T05:51:40.408Z,13.07
2023-04-22T05:54:08.284Z,14.05
2023-04-22T05:56:36.421Z,13.73
2023-04-22T05:59:03.549Z,14.00
2023-04-22T06:01:30.787Z,13.23
2023-04-22T06:04:10.204Z,13.57
2023-04-22T06:06:37.954Z,13.77
2023-04-22T06:09:07.372Z,12.65
2023-04-22T06:11:36.720Z,13.48
2023-04-22T06:14:03.666Z,13.38
2023-04-22T06:16:31.400Z,13.13
2023-04-22T06:18:58.482Z,13.05
2023-04-22T06:21:26.028Z,13.68
2023-04-22T06:23:53.132Z,13.60
2023-04-22T06:26:22.227Z,13.27
2023-04-22T06:28:49.619Z,13.75
2023-04-22T06:31:21.144Z,13.80
2023-04-22T06:33:48.615Z,15.45
2023-04-22T06:36:15.868Z,15.50
2023-04-22T06:38:45.950Z,16.73
2023-04-22T06:41:41.526Z,15.50
2023-04-22T06:44:22.743Z,18.20
2023-04-22T06:47:22.056Z,17.60
2023-04-22T06:49:54.799Z,17.05
2023-04-22T06:52:25.662Z,17.13
2023-04-22T06:54:56.794Z,16.73
2023-04-22T06:57:23.879Z,17.25
2023-04-22T06:59:50.984Z,16.35
2023-04-22T07:02:18.631Z,15.95
2023-04-22T07:04:46.116Z,14.30
2023-04-22T07:07:14.046Z,14.27
2023-04-22T07:09:41.909Z,13.25
2023-04-22T07:12:09.660Z,13.75
2023-04-22T07:14:38.323Z,12.10
2023-04-22T07:17:05.494Z,12.02
2023-04-22T07:19:33.982Z,12.83
2023-04-22T07:22:03.981Z,13.95
2023-04-22T07:24:31.204Z,14.07
2023-04-22T07:26:58.710Z,15.65
2023-04-22T07:29:25.928Z,14.30
2023-04-22T07:31:53.405Z,17.17
2023-04-22T07:34:20.908Z,18.38
2023-04-22T07:36:48.008Z,17.88
2023-04-22T07:39:15.106Z,18.35
2023-04-22T07:41:42.322Z,20.30
2023-04-22T07:44:10.750Z,19.75
2023-04-22T07:46:38.116Z,20.35
2023-04-22T07:49:05.420Z,20.08
2023-04-22T07:51:32.604Z,17.88
2023-04-22T07:54:00.123Z,20.08
2023-04-22T07:56:27.529Z,19.50
2023-04-22T07:58:54.567Z,18.40
2023-04-22T08:01:21.912Z,18.88
2023-04-22T08:03:49.322Z,19.95
2023-04-22T08:06:17.198Z,17.77
2023-04-22T08:08:44.712Z,17.85
2023-04-22T08:11:11.906Z,17.60
2023-04-22T08:13:38.852Z,16.85
2023-04-22T08:16:07.538Z,14.77
2023-04-22T08:18:35.584Z,15.88
2023-04-22T08:21:02.939Z,13.35
2023-04-22T08:23:29.845Z,14.77
2023-04-22T08:25:56.862Z,14.82
2023-04-22T08:28:24.217Z,12.82
2023-04-22T08:30:51.575Z,11.90
2023-04-22T08:33:19.147Z,10.63
2023-04-22T08:35:46.554Z,10.93
2023-04-22T08:38:14.156Z,11.40
2023-04-22T08:40:42.619Z,12.60
2023-04-22T08:43:10.110Z,12.52
2023-04-22T08:45:41.289Z,12.18
2023-04-22T08:48:12.883Z,13.25
2023-04-22T08:50:40.077Z,10.98
2023-04-22T08:53:07.147Z,9.48
2023-04-22T08:55:35.674Z,7.53
2023-04-22T08:58:06.137Z,7.15
2023-04-22T09:00:34.691Z,8.50
2023-04-22T09:03:03.684Z,8.98
2023-04-22T09:05:34.568Z,8.35
2023-04-22T09:08:03.588Z,10.68
2023-04-22T09:10:33.960Z,10.07
2023-04-22T09:13:04.627Z,8.63
2023-04-22T09:15:32.781Z,9.10
2023-04-22T09:17:59.839Z,9.32
2023-04-22T09:20:29.757Z,9.25
2023-04-22T09:22:58.667Z,9.50
2023-04-22T09:25:27.584Z,9.40
2023-04-22T09:27:59.769Z,8.60
2023-04-22T09:30:32.771Z,9.25
2023-04-22T09:33:04.156Z,9.70
2023-04-22T09:35:32.965Z,9.15
2023-04-22T09:38:03.209Z,7.97
2023-04-22T09:40:31.995Z,8.88
2023-04-22T09:43:02.960Z,8.48
2023-04-22T09:45:31.646Z,8.15
2023-04-22T09:48:09.630Z,8.00
2023-04-22T09:50:39.083Z,7.65
2023-04-22T09:53:09.829Z,7.00
2023-04-22T09:55:42.381Z,7.43
2023-04-22T09:58:12.765Z,9.90
2023-04-22T10:00:51.040Z,9.35
2023-04-22T10:03:19.229Z,8.85
2023-04-22T10:05:47.009Z,8.35
2023-04-22T10:08:16.230Z,7.85
2023-04-22T10:10:44.079Z,8.32
2023-04-22T10:13:11.162Z,10.15
2023-04-22T10:15:46.248Z,9.15
2023-04-22T10:18:24.717Z,9.07
2023-04-22T10:20:53.823Z,8.88
2023-04-22T10:23:23.566Z,9.80
2023-04-22T10:25:55.691Z,10.88
2023-04-22T10:28:25.770Z,10.35
2023-04-22T10:30:53.696Z,12.02
2023-04-22T10:33:34.780Z,12.43
2023-04-22T10:36:22.054Z,10.77
2023-04-22T10:38:55.147Z,13.18
2023-04-22T10:41:37.348Z,11.45
2023-04-22T10:44:08.558Z,11.10
2023-04-22T10:46:39.919Z,11.68
2023-04-22T10:49:18.347Z,11.55
2023-04-22T10:51:59.958Z,12.55
2023-04-22T10:54:32.546Z,13.73
2023-04-22T10:57:15.448Z,13.27
2023-04-22T10:59:53.142Z,13.07
2023-04-22T11:02:22.375Z,13.50
2023-04-22T11:04:51.298Z,13.43
2023-04-22T11:07:23.081Z,13.88
2023-04-22T11:09:54.556Z,12.02
2023-04-22T11:12:39.648Z,13.02
2023-04-22T11:15:16.208Z,11.70
2023-04-22T11:17:46.672Z,12.60
2023-04-22T11:20:18.567Z,12.10
2023-04-22T11:22:56.832Z,12.30
2023-04-22T11:25:26.821Z,12.48
2023-04-22T11:27:55.407Z,12.13
2023-04-22T11:30:26.174Z,11.48
2023-04-22T11:32:57.432Z,12.20
2023-04-22T11:35:34.173Z,11.93
2023-04-22T11:38:06.446Z,11.35
2023-04-22T11:40:42.098Z,10.90
2023-04-22T11:43:11.675Z,11.10
2023-04-22T11:45:40.320Z,11.48
2023-04-22T11:48:09.827Z,12.38
2023-04-22T11:50:40.261Z,11.98
2023-04-22T11:53:20.124Z,12.85
2023-04-22T11:55:53.571Z,13.68
2023-04-22T11:58:28.268Z,13.15
2023-04-22T12:00:58.473Z,12.63
2023-04-22T12:03:28.766Z,11.57
2023-04-22T12:05:59.732Z,12.63
2023-04-22T12:08:47.641Z,11.00
2023-04-22T12:11:15.688Z,10.13
2023-04-22T12:13:46.344Z,10.98
2023-04-22T12:16:15.694Z,10.60
2023-04-22T12:18:52.865Z,10.40
2023-04-22T12:21:25.964Z,11.38
2023-04-22T12:24:05.179Z,11.43
2023-04-22T12:26:32.249Z,10.02
2023-04-22T12:29:01.444Z,10.43
2023-04-22T12:31:28.771Z,9.25
2023-04-22T12:33:56.545Z,8.77
2023-04-22T12:36:23.890Z,9.45
2023-04-22T12:38:51.374Z,9.32
2023-04-22T12:41:18.586Z,9.50
2023-04-22T12:43:45.770Z,9.30
2023-04-22T12:46:14.106Z,10.45
2023-04-22T12:48:42.835Z,10.70
2023-04-22T12:51:10.102Z,11.52
2023-04-22T12:53:37.345Z,11.88
2023-04-22T12:56:04.861Z,8.63
2023-04-22T12:58:31.804Z,9.07
2023-04-22T13:00:58.950Z,10.30
2023-04-22T13:03:26.305Z,8.85
2023-04-22T13:05:53.581Z,8.35
2023-04-22T13:08:21.281Z,9.65
2023-04-22T13:10:49.028Z,6.55
2023-04-22T13:13:18.995Z,8.45
2023-04-22T13:15:53.265Z,7.88
2023-04-22T13:20:49.187Z,8.38
2023-04-22T13:23:17.284Z,6.78
2023-04-22T13:25:44.526Z,7.20
2023-04-22T13:28:11.789Z,8.23
2023-04-22T13:30:40.118Z,7.18
2023-04-22T13:33:07.513Z,10.18
2023-04-22T13:35:34.664Z,10.82
2023-04-22T13:38:01.977Z,11.27
2023-04-22T13:40:29.065Z,11.43
2023-04-22T13:42:56.107Z,10.75
2023-04-22T13:45:23.405Z,11.13
2023-04-22T13:47:50.892Z,10.35
2023-04-22T13:50:18.235Z,9.48
2023-04-22T13:52:46.268Z,10.15
2023-04-22T13:55:13.973Z,10.75
2023-04-22T13:57:41.166Z,9.27
2023-04-22T14:00:09.837Z,10.00
2023-04-22T14:02:40.450Z,8.13
2023-04-22T14:05:10.548Z,9.05
2023-04-22T14:07:38.057Z,8.48
2023-04-22T14:10:08.547Z,8.60
2023-04-22T14:12:35.690Z,7.97
2023-04-22T14:15:02.863Z,7.50
2023-04-22T14:17:30.196Z,6.75
2023-04-22T14:19:57.289Z,6.10
2023-04-22T14:22:24.468Z,4.20
2023-04-22T14:24:51.531Z,5.97
2023-04-22T14:27:19.141Z,5.70
2023-04-22T14:29:46.342Z,5.50
2023-04-22T14:32:13.335Z,4.53
2023-04-22T14:34:40.388Z,3.88
2023-04-22T14:37:07.402Z,2.83
2023-04-22T14:39:34.341Z,5.10
2023-04-22T14:42:02.585Z,8.20
2023-04-22T14:44:29.713Z,5.70
2023-04-22T14:46:56.819Z,4.60
2023-04-22T14:49:23.830Z,5.25
2023-04-22T14:51:51.018Z,3.65
2023-04-22T14:54:18.035Z,3.10
2023-04-22T14:56:45.093Z,5.13
2023-04-22T14:59:12.049Z,2.85
2023-04-22T15:01:41.794Z,1.92
2023-04-22T15:04:11.584Z,1.40
2023-04-22T15:06:38.687Z,0.57
2023-04-22T15:09:05.934Z,0.98
2023-04-22T15:11:33.632Z,1.20
2023-04-22T15:14:00.621Z,2.30
2023-04-22T15:16:27.859Z,4.60
2023-04-22T15:18:55.819Z,4.35
2023-04-22T15:21:22.948Z,6.18
2023-04-22T15:23:50.856Z,6.13
2023-04-22T15:26:17.987Z,8.93
2023-04-22T15:28:45.221Z,7.82
2023-04-22T15:31:12.370Z,8.77
2023-04-22T15:33:39.366Z,8.20
2023-04-22T15:36:07.029Z,7.45
2023-04-22T15:38:34.055Z,7.38
2023-04-22T15:41:01.368Z,7.07
2023-04-22T15:43:28.476Z,9.30
2023-04-22T15:45:58.632Z,7.47
2023-04-22T15:48:25.780Z,8.27
2023-04-22T15:50:52.797Z,8.20
2023-04-22T15:53:19.768Z,6.90
2023-04-22T15:55:48.108Z,6.10
2023-04-22T15:58:16.160Z,7.28
2023-04-22T16:00:43.220Z,9.40
2023-04-22T16:03:11.511Z,7.95
2023-04-22T16:05:39.212Z,9.35
2023-04-22T16:08:06.262Z,7.75
2023-04-22T16:10:33.266Z,7.20
2023-04-22T16:13:00.218Z,7.95
2023-04-22T16:15:27.322Z,7.97
2023-04-22T16:17:54.320Z,6.60
2023-04-22T16:20:21.402Z,6.68
2023-04-22T16:22:48.405Z,6.65
2023-04-22T16:25:15.629Z,6.75
2023-04-22T16:27:42.650Z,7.80
2023-04-22T16:30:10.181Z,6.75
2023-04-22T16:32:37.310Z,7.53
2023-04-22T16:35:04.879Z,6.07
2023-04-22T16:37:32.223Z,5.95
2023-04-22T16:39:59.289Z,6.00
2023-04-22T16:42:27.065Z,6.25
2023-04-22T16:44:54.098Z,5.70
2023-04-22T16:47:21.060Z,5.15
2023-04-22T16:49:48.031Z,5.57
2023-04-22T16:52:15.244Z,6.63
2023-04-22T16:54:42.792Z,6.00
2023-04-22T16:57:11.427Z,5.47
2023-04-22T16:59:39.266Z,5.25
2023-04-22T17:02:06.664Z,4.60
2023-04-22T17:04:33.933Z,4.25
2023-04-22T17:07:01.020Z,4.20
2023-04-22T17:09:28.400Z,4.80
2023-04-22T17:11:56.877Z,5.30
2023-04-22T17:14:24.924Z,3.70
2023-04-22T17:16:52.073Z,4.28
2023-04-22T17:19:19.033Z,4.82
2023-04-22T17:21:46.062Z,5.25
2023-04-22T17:24:13.485Z,3.97
2023-04-22T17:26:40.782Z,4.55
2023-04-22T17:29:08.340Z,5.45
2023-04-22T17:31:35.415Z,4.28
2023-04-22T17:34:03.450Z,4.80
2023-04-22T17:36:31.699Z,7.57
2023-04-22T17:38:58.730Z,6.88
2023-04-22T17:41:25.862Z,6.30
2023-04-22T17:43:52.842Z,6.65
2023-04-22T17:46:20.230Z,6.32
2023-04-22T17:48:47.594Z,8.32
2023-04-22T17:51:15.574Z,6.63
2023-04-22T17:53:43.209Z,7.18
2023-04-22T17:56:10.460Z,7.45
2023-04-22T17:58:38.811Z,7.97
2023-04-22T18:01:08.538Z,7.32
2023-04-22T18:03:36.636Z,7.40
2023-04-22T18:06:03.994Z,7.45
2023-04-22T18:08:31.468Z,8.25
2023-04-22T18:10:59.191Z,9.18
2023-04-22T18:13:27.095Z,8.57
2023-04-22T18:15:54.164Z,8.35
2023-04-22T18:18:21.116Z,9.38
2023-04-22T18:20:48.032Z,7.95
2023-04-22T18:23:15.136Z,7.25
2023-04-22T18:25:42.159Z,8.30
2023-04-22T18:28:09.103Z,8.30
2023-04-22T18:30:36.023Z,8.63
2023-04-22T18:33:04.739Z,8.30
2023-04-22T18:35:32.940Z,9.77
2023-04-22T18:37:59.953Z,8.48
2023-04-22T18:40:30.594Z,8.45
2023-04-22T18:42:57.835Z,9.73
2023-04-22T18:45:25.007Z,8.88
2023-04-22T18:47:52.949Z,10.15
2023-04-22T18:50:21.129Z,9.15
2023-04-22T18:52:48.567Z,10.05
2023-04-22T18:55:16.144Z,10.80
2023-04-22T18:57:43.791Z,10.75
2023-04-22T19:00:13.268Z,10.45
2023-04-22T19:02:42.369Z,10.57
2023-04-22T19:05:09.999Z,10.80
2023-04-22T19:07:38.355Z,10.25
2023-04-22T19:10:07.751Z,11.40
2023-04-22T19:12:35.228Z,10.13
2023-04-22T19:15:02.512Z,10.02
2023-04-22T19:17:29.697Z,10.35
2023-04-22T19:19:56.875Z,10.05
2023-04-22T19:22:24.234Z,10.50
2023-04-22T19:24:51.315Z,10.45
2023-04-22T19:27:19.010Z,10.75
2023-04-22T19:29:51.280Z,10.02
2023-04-22T19:32:18.843Z,10.95
2023-04-22T19:34:47.240Z,12.02
2023-04-22T19:37:14.245Z,13.02
2023-04-22T19:39:41.394Z,13.52
2023-04-22T19:42:08.550Z,14.18
2023-04-22T19:44:36.464Z,14.13
2023-04-22T19:47:03.748Z,12.75
2023-04-22T19:49:31.811Z,14.05
2023-04-22T19:52:01.971Z,14.50
2023-04-22T19:54:30.140Z,13.43
2023-04-22T19:56:58.548Z,13.60
2023-04-22T19:59:28.029Z,13.25
2023-04-22T20:01:55.514Z,14.30
2023-04-22T20:04:23.261Z,13.00
2023-04-22T20:06:51.609Z,15.70
2023-04-22T20:09:19.376Z,16.13
2023-04-22T20:11:48.226Z,15.90
2023-04-22T20:14:15.321Z,17.42
2023-04-22T20:16:42.684Z,18.55
2023-04-22T20:19:11.454Z,17.02
2023-04-22T20:21:40.100Z,16.90
2023-04-22T20:24:08.224Z,16.45
2023-04-22T20:26:35.436Z,16.92
2023-04-22T20:29:03.332Z,19.08
2023-04-22T20:31:30.554Z,17.70
2023-04-22T20:33:58.154Z,24.70
2023-04-22T20:36:26.748Z,24.45
2023-04-22T20:38:55.129Z,23.08
2023-04-22T20:41:24.618Z,24.10
2023-04-22T20:43:52.421Z,22.35
2023-04-22T20:46:22.652Z,20.08
2023-04-22T20:48:50.132Z,18.23
2023-04-22T20:51:17.282Z,18.42
2023-04-22T20:53:45.437Z,16.77
2023-04-22T20:56:13.249Z,17.17
2023-04-22T20:58:40.261Z,17.38
2023-04-22T21:01:09.295Z,16.23
2023-04-22T21:03:39.583Z,16.45
2023-04-22T21:06:08.479Z,17.45
2023-04-22T21:08:37.010Z,17.08
2023-04-22T21:11:04.680Z,17.45
2023-04-22T21:13:32.047Z,18.20
2023-04-22T21:16:05.954Z,18.17
2023-04-22T21:18:34.629Z,18.77
2023-04-22T21:21:04.076Z,20.30
2023-04-22T21:23:31.713Z,18.75
2023-04-22T21:26:01.563Z,18.75
2023-04-22T21:28:30.012Z,19.77
2023-04-22T21:31:03.721Z,18.17
2023-04-22T21:33:34.104Z,19.33
2023-04-22T21:36:01.180Z,18.70
2023-04-22T21:38:29.225Z,19.33
2023-04-22T21:40:56.257Z,19.05
2023-04-22T21:43:23.548Z,18.33
2023-04-22T21:45:51.019Z,18.75
2023-04-22T21:48:18.074Z,19.70
2023-04-22T21:50:45.460Z,17.67
2023-04-22T21:53:13.022Z,19.38
2023-04-22T21:55:41.147Z,19.10
2023-04-22T21:58:08.377Z,18.75
2023-04-22T22:00:37.842Z,20.90
2023-04-22T22:03:06.264Z,20.42
2023-04-22T22:05:33.561Z,20.52
2023-04-22T22:08:00.713Z,20.85
2023-04-22T22:10:28.447Z,20.15
2023-04-22T22:12:56.281Z,20.00
2023-04-22T22:15:23.420Z,20.17
2023-04-22T22:17:51.310Z,19.60
2023-04-22T22:20:21.540Z,21.65
2023-04-22T22:22:48.493Z,20.85
2023-04-22T22:25:16.386Z,21.40
2023-04-22T22:27:49.433Z,20.60
2023-04-22T22:30:19.065Z,20.38
2023-04-22T22:32:46.448Z,20.33
2023-04-22T22:35:13.689Z,20.77
2023-04-22T22:37:41.146Z,21.63
2023-04-22T22:40:09.026Z,20.55
2023-04-22T22:42:36.248Z,22.42
2023-04-22T22:45:05.267Z,22.23
2023-04-22T22:47:33.120Z,21.95
2023-04-22T22:50:00.764Z,19.83
2023-04-22T22:52:28.846Z,22.10
2023-04-22T22:54:56.116Z,21.63
2023-04-22T22:57:23.182Z,21.58
2023-04-22T22:59:50.074Z,21.35
2023-04-22T23:02:17.561Z,21.65
2023-04-22T23:04:45.145Z,22.52
2023-04-22T23:07:14.618Z,22.73
2023-04-22T23:09:41.836Z,22.30
2023-04-22T23:12:09.313Z,23.17
2023-04-22T23:14:36.679Z,24.13
2023-04-22T23:17:03.860Z,22.73
2023-04-22T23:19:31.599Z,24.15
2023-04-22T23:21:59.113Z,23.60
2023-04-22T23:24:26.719Z,22.52
2023-04-22T23:26:54.089Z,21.92
2023-04-22T23:29:21.905Z,23.25
2023-04-22T23:31:52.343Z,24.35
2023-04-22T23:34:33.747Z,22.27
2023-04-22T23:37:09.003Z,23.42
2023-04-22T23:39:36.092Z,24.02
2023-04-22T23:42:03.225Z,22.42
2023-04-22T23:44:30.283Z,23.65
2023-04-22T23:46:57.601Z,23.65
2023-04-22T23:49:24.865Z,23.77
2023-04-22T23:51:51.890Z,22.52
2023-04-22T23:54:18.988Z,24.27
2023-04-22T23:56:46.817Z,24.17
2023-04-22T23:59:14.307Z,23.60
